createdAt,value
2023-03-31T00:00:57.112Z,1001.34
2023-03-31T00:01:57.112Z,1001.29
2023-03-31T00:02:57.207Z,1001.35
2023-03-31T00:03:57.263Z,1001.31
2023-03-31T00:04:57.171Z,1001.35
2023-03-31T00:05:57.064Z,1001.28
2023-03-31T00:06:57.052Z,1001.31
2023-03-31T00:07:57.082Z,1001.29
2023-03-31T00:08:57.050Z,1001.34
2023-03-31T00:10:07.123Z,1001.31
2023-03-31T00:10:58.007Z,1001.25
2023-03-31T00:11:57.007Z,1001.20
2023-03-31T00:12:56.991Z,1001.26
2023-03-31T00:13:57.000Z,1001.16
2023-03-31T00:14:56.964Z,1001.21
2023-03-31T00:15:56.987Z,1001.24
2023-03-31T00:16:57.053Z,1001.23
2023-03-31T00:17:56.972Z,1001.22
2023-03-31T00:18:56.961Z,1001.19
2023-03-31T00:19:56.908Z,1001.19
2023-03-31T00:20:56.904Z,1001.24
2023-03-31T00:21:56.895Z,1001.24
2023-03-31T00:22:56.871Z,1001.20
2023-03-31T00:23:56.892Z,1001.24
2023-03-31T00:24:56.853Z,1001.20
2023-03-31T00:25:56.880Z,1001.18
2023-03-31T00:26:56.834Z,1001.19
2023-03-31T00:27:56.822Z,1001.15
2023-03-31T00:28:56.816Z,1001.17
2023-03-31T00:29:56.802Z,1001.12
2023-03-31T00:30:56.783Z,1001.12
2023-03-31T00:31:56.859Z,1001.16
2023-03-31T00:32:56.794Z,1001.11
2023-03-31T00:33:56.762Z,1001.12
2023-03-31T00:34:56.762Z,1001.18
2023-03-31T00:35:56.793Z,1001.13
2023-03-31T00:36:56.889Z,1001.08
2023-03-31T00:37:56.719Z,1001.02
2023-03-31T00:38:56.694Z,1001.08
2023-03-31T00:39:56.687Z,1001.08
2023-03-31T00:40:56.672Z,1001.05
2023-03-31T00:41:56.692Z,1001.07
2023-03-31T00:42:56.651Z,1001.07
2023-03-31T00:43:56.646Z,1000.94
2023-03-31T00:44:56.655Z,1001.02
2023-03-31T00:45:56.650Z,1000.98
2023-03-31T00:46:56.609Z,1000.98
2023-03-31T00:47:56.637Z,1000.93
2023-03-31T00:48:56.597Z,1000.97
2023-03-31T00:49:56.592Z,1000.93
2023-03-31T00:50:56.594Z,1000.95
2023-03-31T00:51:56.573Z,1000.92
2023-03-31T00:52:56.576Z,1000.96
2023-03-31T00:53:56.530Z,1000.99
2023-03-31T00:54:56.538Z,1000.90
2023-03-31T00:55:56.504Z,1000.90
2023-03-31T00:56:56.527Z,1000.89
2023-03-31T00:57:56.506Z,1000.89
2023-03-31T00:58:56.482Z,1000.84
2023-03-31T00:59:56.493Z,1000.84
2023-03-31T01:00:56.466Z,1000.89
2023-03-31T01:01:56.443Z,1000.86
2023-03-31T01:02:56.494Z,1000.84
2023-03-31T01:03:56.451Z,1000.91
2023-03-31T01:04:56.438Z,1000.84
2023-03-31T01:05:56.400Z,1000.84
2023-03-31T01:06:56.414Z,1000.83
2023-03-31T01:07:56.381Z,1000.81
2023-03-31T01:08:56.366Z,1000.82
2023-03-31T01:09:56.381Z,1000.70
2023-03-31T01:10:56.350Z,1000.73
2023-03-31T01:11:56.337Z,1000.71
2023-03-31T01:12:56.326Z,1000.64
2023-03-31T01:13:56.468Z,1000.65
2023-03-31T01:14:56.309Z,1000.67
2023-03-31T01:15:56.294Z,1000.62
2023-03-31T01:16:56.398Z,1000.64
2023-03-31T01:17:56.345Z,1000.57
2023-03-31T01:18:56.288Z,1000.62
2023-03-31T01:19:56.247Z,1000.63
2023-03-31T01:20:56.236Z,1000.56
2023-03-31T01:21:56.225Z,1000.61
2023-03-31T01:22:56.244Z,1000.53
2023-03-31T01:23:56.236Z,1000.56
2023-03-31T01:24:56.199Z,1000.55
2023-03-31T01:25:56.183Z,1000.52
2023-03-31T01:26:56.173Z,1000.49
2023-03-31T01:27:56.160Z,1000.49
2023-03-31T01:28:56.175Z,1000.46
2023-03-31T01:29:56.142Z,1000.50
2023-03-31T01:30:56.191Z,1000.51
2023-03-31T01:31:56.121Z,1000.45
2023-03-31T01:32:56.152Z,1000.45
2023-03-31T01:33:56.117Z,1000.37
2023-03-31T01:34:56.113Z,1000.44
2023-03-31T01:35:56.219Z,1000.39
2023-03-31T01:36:56.071Z,1000.39
2023-03-31T01:37:56.051Z,1000.36
2023-03-31T01:38:56.062Z,1000.33
2023-03-31T01:39:56.057Z,1000.36
2023-03-31T01:40:56.026Z,1000.37
2023-03-31T01:41:56.020Z,1000.39
2023-03-31T01:42:56.000Z,1000.34
2023-03-31T01:43:55.990Z,1000.38
2023-03-31T01:44:56.000Z,1000.31
2023-03-31T01:45:55.990Z,1000.33
2023-03-31T01:46:55.954Z,1000.30
2023-03-31T01:47:55.970Z,1000.33
2023-03-31T01:48:55.934Z,1000.34
2023-03-31T01:49:55.952Z,1000.31
2023-03-31T01:50:55.914Z,1000.21
2023-03-31T01:51:55.931Z,1000.22
2023-03-31T01:52:55.895Z,1000.28
2023-03-31T01:53:55.875Z,1000.26
2023-03-31T01:54:55.890Z,1000.27
2023-03-31T01:55:55.877Z,1000.20
2023-03-31T01:56:55.900Z,1000.24
2023-03-31T01:57:55.837Z,1000.22
2023-03-31T01:58:55.900Z,1000.14
2023-03-31T01:59:55.811Z,1000.20
2023-03-31T02:00:55.804Z,1000.25
2023-03-31T02:01:55.845Z,1000.19
2023-03-31T02:02:55.890Z,1000.22
2023-03-31T02:03:55.805Z,1000.20
2023-03-31T02:04:55.762Z,1000.26
2023-03-31T02:05:55.748Z,1000.18
2023-03-31T02:06:55.756Z,1000.22
2023-03-31T02:07:55.727Z,1000.11
2023-03-31T02:08:55.723Z,1000.16
2023-03-31T02:09:55.738Z,1000.14
2023-03-31T02:10:55.719Z,1000.12
2023-03-31T02:11:55.682Z,1000.15
2023-03-31T02:12:55.683Z,1000.07
2023-03-31T02:13:55.674Z,1000.03
2023-03-31T02:14:55.673Z,1000.03
2023-03-31T02:15:55.676Z,1000.11
2023-03-31T02:16:55.628Z,1000.06
2023-03-31T02:17:55.697Z,1000.03
2023-03-31T02:18:55.606Z,1000.09
2023-03-31T02:19:55.593Z,1000.01
2023-03-31T02:20:55.583Z,1000.03
2023-03-31T02:21:55.583Z,1000.05
2023-03-31T02:22:55.590Z,999.96
2023-03-31T02:23:55.545Z,999.95
2023-03-31T02:24:55.542Z,1000.04
2023-03-31T02:25:55.529Z,1000.02
2023-03-31T02:26:55.545Z,999.96
2023-03-31T02:27:55.528Z,999.97
2023-03-31T02:28:55.506Z,999.98
2023-03-31T02:29:55.483Z,999.92
2023-03-31T02:30:55.472Z,999.95
2023-03-31T02:31:55.561Z,999.91
2023-03-31T02:32:55.501Z,999.88
2023-03-31T02:33:55.443Z,999.96
2023-03-31T02:34:55.441Z,999.88
2023-03-31T02:35:55.535Z,999.97
2023-03-31T02:36:55.418Z,999.94
2023-03-31T02:37:55.417Z,999.94
2023-03-31T02:38:55.398Z,999.92
2023-03-31T02:39:55.374Z,999.91
2023-03-31T02:40:55.361Z,999.97
2023-03-31T02:41:55.351Z,999.89
2023-03-31T02:42:55.391Z,999.88
2023-03-31T02:43:55.336Z,999.83
2023-03-31T02:44:55.326Z,999.92
2023-03-31T02:45:55.367Z,999.85
2023-03-31T02:46:55.310Z,999.78
2023-03-31T02:47:55.323Z,999.78
2023-03-31T02:48:55.280Z,999.77
2023-03-31T02:49:55.266Z,999.74
2023-03-31T02:50:55.265Z,999.73
2023-03-31T02:51:55.247Z,999.73
2023-03-31T02:52:55.254Z,999.65
2023-03-31T02:53:55.220Z,999.67
2023-03-31T02:54:55.223Z,999.70
2023-03-31T02:55:55.200Z,999.68
2023-03-31T02:56:55.280Z,999.65
2023-03-31T02:57:55.201Z,999.67
2023-03-31T02:58:55.202Z,999.62
2023-03-31T02:59:55.158Z,999.64
2023-03-31T03:00:55.195Z,999.61
2023-03-31T03:01:55.203Z,999.64
2023-03-31T03:02:55.186Z,999.66
2023-03-31T03:03:55.120Z,999.62
2023-03-31T03:04:55.106Z,999.64
2023-03-31T03:05:55.113Z,999.67
2023-03-31T03:06:55.109Z,999.60
2023-03-31T03:07:55.072Z,999.62
2023-03-31T03:08:55.076Z,999.58
2023-03-31T03:09:55.051Z,999.60
2023-03-31T03:10:55.041Z,999.64
2023-03-31T03:11:55.049Z,999.61
2023-03-31T03:12:55.019Z,999.57
2023-03-31T03:13:55.024Z,999.54
2023-03-31T03:14:55.039Z,999.49
2023-03-31T03:15:54.982Z,999.51
2023-03-31T03:16:55.091Z,999.62
2023-03-31T03:17:55.016Z,999.50
2023-03-31T03:18:54.979Z,999.53
2023-03-31T03:19:54.947Z,999.48
2023-03-31T03:20:54.932Z,999.52
2023-03-31T03:21:54.917Z,999.56
2023-03-31T03:22:54.912Z,999.53
2023-03-31T03:23:54.928Z,999.49
2023-03-31T03:24:54.892Z,999.55
2023-03-31T03:25:54.874Z,999.46
2023-03-31T03:26:54.866Z,999.43
2023-03-31T03:27:54.895Z,999.41
2023-03-31T03:28:54.856Z,999.44
2023-03-31T03:29:54.833Z,999.44
2023-03-31T03:30:54.909Z,999.44
2023-03-31T03:31:54.810Z,999.41
2023-03-31T03:32:54.882Z,999.38
2023-03-31T03:33:54.790Z,999.43
2023-03-31T03:34:54.778Z,999.37
2023-03-31T03:35:54.776Z,999.40
2023-03-31T03:36:54.782Z,999.30
2023-03-31T03:37:54.775Z,999.27
2023-03-31T03:38:54.748Z,999.26
2023-03-31T03:39:54.720Z,999.29
2023-03-31T03:40:54.716Z,999.32
2023-03-31T03:41:54.718Z,999.28
2023-03-31T03:42:54.727Z,999.29
2023-03-31T03:43:54.681Z,999.32
2023-03-31T03:44:54.672Z,999.25
2023-03-31T03:45:54.732Z,999.30
2023-03-31T03:46:54.690Z,999.26
2023-03-31T03:47:54.721Z,999.29
2023-03-31T03:48:54.630Z,999.27
2023-03-31T03:49:54.618Z,999.23
2023-03-31T03:50:54.631Z,999.24
2023-03-31T03:51:54.599Z,999.27
2023-03-31T03:52:54.609Z,999.24
2023-03-31T03:53:54.570Z,999.21
2023-03-31T03:54:54.575Z,999.21
2023-03-31T03:55:54.548Z,999.18
2023-03-31T03:56:54.586Z,999.26
2023-03-31T03:57:54.546Z,999.18
2023-03-31T03:58:54.518Z,999.17
2023-03-31T03:59:54.526Z,999.16
2023-03-31T04:00:54.493Z,999.14
2023-03-31T04:01:54.535Z,999.17
2023-03-31T04:02:54.548Z,999.14
2023-03-31T04:03:54.492Z,999.10
2023-03-31T04:04:54.493Z,999.07
2023-03-31T04:05:54.438Z,999.02
2023-03-31T04:06:54.427Z,999.00
2023-03-31T04:07:54.412Z,999.01
2023-03-31T04:08:54.403Z,999.00
2023-03-31T04:09:54.413Z,999.02
2023-03-31T04:10:54.386Z,998.93
2023-03-31T04:11:54.378Z,998.96
2023-03-31T04:12:54.392Z,998.92
2023-03-31T04:13:54.352Z,998.93
2023-03-31T04:14:54.361Z,998.91
2023-03-31T04:15:54.334Z,998.85
2023-03-31T04:16:54.320Z,998.83
2023-03-31T04:17:54.333Z,998.89
2023-03-31T04:18:54.316Z,998.92
2023-03-31T04:19:54.316Z,998.94
2023-03-31T04:20:54.300Z,998.89
2023-03-31T04:21:54.278Z,998.89
2023-03-31T04:22:54.249Z,998.90
2023-03-31T04:23:54.236Z,998.91
2023-03-31T04:24:54.232Z,998.87
2023-03-31T04:25:54.239Z,998.86
2023-03-31T04:26:54.220Z,998.81
2023-03-31T04:27:54.190Z,998.82
2023-03-31T04:28:54.196Z,998.83
2023-03-31T04:29:54.167Z,998.85
2023-03-31T04:30:54.185Z,998.78
2023-03-31T04:31:54.217Z,998.81
2023-03-31T04:32:54.165Z,998.77
2023-03-31T04:33:54.125Z,998.73
2023-03-31T04:34:54.135Z,998.72
2023-03-31T04:35:54.153Z,998.75
2023-03-31T04:36:54.093Z,998.73
2023-03-31T04:37:54.112Z,998.74
2023-03-31T04:38:54.070Z,998.73
2023-03-31T04:39:54.055Z,998.69
2023-03-31T04:40:54.094Z,998.73
2023-03-31T04:41:54.047Z,998.69
2023-03-31T04:42:54.026Z,998.64
2023-03-31T04:43:54.011Z,998.61
2023-03-31T04:44:54.006Z,998.66
2023-03-31T04:45:54.028Z,998.55
2023-03-31T04:46:53.984Z,998.58
2023-03-31T04:47:54.004Z,998.58
2023-03-31T04:48:53.967Z,998.60
2023-03-31T04:49:53.948Z,998.53
2023-03-31T04:50:53.989Z,998.48
2023-03-31T04:51:53.958Z,998.57
2023-03-31T04:52:53.916Z,998.49
2023-03-31T04:53:53.907Z,998.51
2023-03-31T04:54:53.892Z,998.54
2023-03-31T04:55:53.888Z,998.43
2023-03-31T04:56:53.937Z,998.48
2023-03-31T04:57:53.861Z,998.44
2023-03-31T04:58:53.854Z,998.45
2023-03-31T04:59:53.873Z,998.46
2023-03-31T05:00:53.864Z,998.48
2023-03-31T05:01:53.848Z,998.49
2023-03-31T05:02:53.857Z,998.45
2023-03-31T05:03:53.816Z,998.48
2023-03-31T05:04:53.789Z,998.42
2023-03-31T05:05:53.781Z,998.43
2023-03-31T05:06:53.822Z,998.39
2023-03-31T05:07:53.794Z,998.36
2023-03-31T05:08:53.748Z,998.34
2023-03-31T05:09:53.740Z,998.34
2023-03-31T05:10:53.725Z,998.32
2023-03-31T05:11:53.736Z,998.29
2023-03-31T05:12:53.725Z,998.26
2023-03-31T05:13:53.701Z,998.29
2023-03-31T05:14:53.679Z,998.26
2023-03-31T05:15:53.679Z,998.24
2023-03-31T05:16:53.697Z,998.29
2023-03-31T05:17:53.736Z,998.25
2023-03-31T05:18:53.642Z,998.21
2023-03-31T05:19:53.628Z,998.22
2023-03-31T05:20:53.616Z,998.24
2023-03-31T05:21:53.612Z,998.15
2023-03-31T05:22:53.662Z,998.16
2023-03-31T05:23:53.588Z,998.13
2023-03-31T05:24:53.572Z,998.09
2023-03-31T05:25:53.569Z,998.10
2023-03-31T05:26:53.551Z,998.07
2023-03-31T05:27:53.549Z,998.02
2023-03-31T05:28:53.592Z,998.10
2023-03-31T05:29:53.528Z,997.99
2023-03-31T05:30:53.513Z,998.07
2023-03-31T05:31:53.523Z,998.00
2023-03-31T05:32:53.588Z,998.07
2023-03-31T05:33:53.480Z,998.00
2023-03-31T05:34:53.471Z,998.04
2023-03-31T05:35:53.482Z,998.02
2023-03-31T05:36:53.460Z,997.96
2023-03-31T05:37:53.477Z,997.99
2023-03-31T05:38:53.454Z,998.02
2023-03-31T05:39:53.419Z,997.96
2023-03-31T05:40:53.396Z,998.01
2023-03-31T05:41:53.389Z,997.96
2023-03-31T05:42:53.381Z,997.89
2023-03-31T05:43:53.395Z,997.91
2023-03-31T05:44:53.373Z,997.90
2023-03-31T05:45:53.423Z,997.90
2023-03-31T05:46:53.363Z,997.92
2023-03-31T05:47:53.362Z,997.85
2023-03-31T05:48:53.334Z,997.91
2023-03-31T05:49:53.306Z,997.92
2023-03-31T05:50:53.291Z,997.88
2023-03-31T05:51:53.282Z,997.88
2023-03-31T05:52:53.266Z,997.93
2023-03-31T05:53:53.288Z,997.91
2023-03-31T05:54:53.280Z,997.92
2023-03-31T05:55:53.252Z,997.87
2023-03-31T05:56:53.260Z,997.86
2023-03-31T05:57:53.218Z,997.81
2023-03-31T05:58:53.229Z,997.81
2023-03-31T05:59:53.194Z,997.81
2023-03-31T06:00:53.189Z,997.77
2023-03-31T06:01:53.292Z,997.81
2023-03-31T06:02:53.255Z,997.81
2023-03-31T06:03:53.199Z,997.82
2023-03-31T06:04:53.137Z,997.84
2023-03-31T06:05:53.134Z,997.79
2023-03-31T06:06:53.112Z,997.77
2023-03-31T06:07:53.105Z,997.74
2023-03-31T06:08:53.117Z,997.75
2023-03-31T06:09:53.100Z,997.69
2023-03-31T06:10:53.098Z,997.68
2023-03-31T06:11:53.071Z,997.63
2023-03-31T06:12:53.048Z,997.67
2023-03-31T06:13:53.084Z,997.61
2023-03-31T06:14:53.026Z,997.64
2023-03-31T06:15:53.058Z,997.58
2023-03-31T06:16:53.281Z,997.62
2023-03-31T06:17:53.072Z,997.61
2023-03-31T06:18:53.004Z,997.63
2023-03-31T06:19:52.971Z,997.58
2023-03-31T06:20:52.973Z,997.60
2023-03-31T06:21:52.955Z,997.51
2023-03-31T06:22:52.939Z,997.63
2023-03-31T06:23:52.969Z,997.57
2023-03-31T06:24:52.920Z,997.45
2023-03-31T06:25:52.913Z,997.50
2023-03-31T06:26:53.930Z,997.51
2023-03-31T06:27:52.890Z,997.46
2023-03-31T06:28:52.901Z,997.48
2023-03-31T06:29:52.865Z,997.45
2023-03-31T06:30:52.852Z,997.52
2023-03-31T06:31:52.892Z,997.47
2023-03-31T06:32:52.912Z,997.48
2023-03-31T06:33:52.845Z,997.46
2023-03-31T06:34:52.807Z,997.43
2023-03-31T06:35:52.830Z,997.51
2023-03-31T06:36:52.810Z,997.42
2023-03-31T06:37:52.802Z,997.45
2023-03-31T06:38:52.776Z,997.45
2023-03-31T06:39:52.780Z,997.42
2023-03-31T06:40:52.775Z,997.46
2023-03-31T06:41:52.777Z,997.46
2023-03-31T06:42:52.753Z,997.43
2023-03-31T06:43:52.711Z,997.47
2023-03-31T06:44:52.803Z,997.35
2023-03-31T06:46:03.904Z,997.38
2023-03-31T06:46:53.686Z,997.40
2023-03-31T06:47:52.738Z,997.41
2023-03-31T06:48:52.651Z,997.36
2023-03-31T06:49:52.655Z,997.37
2023-03-31T06:50:52.654Z,997.33
2023-03-31T06:51:52.642Z,997.40
2023-03-31T06:52:52.635Z,997.38
2023-03-31T06:53:52.637Z,997.34
2023-03-31T06:54:52.609Z,997.37
2023-03-31T06:55:52.604Z,997.35
2023-03-31T06:56:52.592Z,997.32
2023-03-31T06:57:52.579Z,997.29
2023-03-31T06:58:52.615Z,997.31
2023-03-31T06:59:52.540Z,997.29
2023-03-31T07:00:52.546Z,997.31
2023-03-31T07:01:52.584Z,997.25
2023-03-31T07:02:52.625Z,997.30
2023-03-31T07:03:52.506Z,997.22
2023-03-31T07:04:52.473Z,997.21
2023-03-31T07:05:52.472Z,997.22
2023-03-31T07:06:52.455Z,997.22
2023-03-31T07:07:52.479Z,997.14
2023-03-31T07:08:52.434Z,997.18
2023-03-31T07:09:52.438Z,997.15
2023-03-31T07:10:52.405Z,997.11
2023-03-31T07:11:52.397Z,997.16
2023-03-31T07:12:52.480Z,997.14
2023-03-31T07:13:52.384Z,997.14
2023-03-31T07:14:52.396Z,997.15
2023-03-31T07:15:52.392Z,997.18
2023-03-31T07:16:52.444Z,997.19
2023-03-31T07:17:52.362Z,997.12
2023-03-31T07:18:52.326Z,997.11
2023-03-31T07:19:52.340Z,997.11
2023-03-31T07:20:52.299Z,997.12
2023-03-31T07:21:52.311Z,997.15
2023-03-31T07:22:52.289Z,997.07
2023-03-31T07:23:52.273Z,997.00
2023-03-31T07:24:52.272Z,996.95
2023-03-31T07:25:52.248Z,996.99
2023-03-31T07:26:52.259Z,996.97
2023-03-31T07:27:52.220Z,996.98
2023-03-31T07:28:52.213Z,996.93
2023-03-31T07:29:52.238Z,996.95
2023-03-31T07:30:52.208Z,996.98
2023-03-31T07:31:52.201Z,997.01
2023-03-31T07:32:52.250Z,996.95
2023-03-31T07:33:52.154Z,996.99
2023-03-31T07:34:52.142Z,996.92
2023-03-31T07:36:07.880Z,996.95
2023-03-31T07:36:53.173Z,996.95
2023-03-31T07:37:52.111Z,996.93
2023-03-31T07:38:52.103Z,996.92
2023-03-31T07:39:52.092Z,996.92
2023-03-31T07:41:02.112Z,996.91
2023-03-31T07:41:53.075Z,996.84
2023-03-31T07:42:52.117Z,996.86
2023-03-31T07:43:52.048Z,996.83
2023-03-31T07:44:52.028Z,996.86
2023-03-31T07:45:52.070Z,996.82
2023-03-31T07:46:52.038Z,996.83
2023-03-31T07:47:52.133Z,996.79
2023-03-31T07:48:51.988Z,996.76
2023-03-31T07:49:51.979Z,996.75
2023-03-31T07:50:51.985Z,996.78
2023-03-31T07:51:51.987Z,996.77
2023-03-31T07:52:51.967Z,996.76
2023-03-31T07:53:51.938Z,996.82
2023-03-31T07:54:51.932Z,996.69
2023-03-31T07:55:51.933Z,996.75
2023-03-31T07:56:51.941Z,996.69
2023-03-31T07:57:51.896Z,996.72
2023-03-31T07:58:53.295Z,996.77
2023-03-31T07:59:51.874Z,996.84
2023-03-31T08:00:51.886Z,996.73
2023-03-31T08:01:51.869Z,996.72
2023-03-31T08:02:51.900Z,996.78
2023-03-31T08:03:51.903Z,996.81
2023-03-31T08:04:51.817Z,996.79
2023-03-31T08:05:52.460Z,996.75
2023-03-31T08:06:51.821Z,996.69
2023-03-31T08:07:51.792Z,996.70
2023-03-31T08:08:51.778Z,996.65
2023-03-31T08:09:51.764Z,996.68
2023-03-31T08:10:51.751Z,996.65
2023-03-31T08:11:51.767Z,996.63
2023-03-31T08:12:51.728Z,996.59
2023-03-31T08:13:51.734Z,996.56
2023-03-31T08:14:51.705Z,996.60
2023-03-31T08:15:51.725Z,996.59
2023-03-31T08:16:51.707Z,996.60
2023-03-31T08:17:51.736Z,996.58
2023-03-31T08:18:51.685Z,996.54
2023-03-31T08:19:51.668Z,996.45
2023-03-31T08:20:51.635Z,996.53
2023-03-31T08:21:51.657Z,996.54
2023-03-31T08:22:51.626Z,996.51
2023-03-31T08:23:51.608Z,996.52
2023-03-31T08:24:51.596Z,996.48
2023-03-31T08:25:51.587Z,996.51
2023-03-31T08:26:51.638Z,996.49
2023-03-31T08:27:51.565Z,996.47
2023-03-31T08:28:51.551Z,996.45
2023-03-31T08:29:51.560Z,996.42
2023-03-31T08:30:51.529Z,996.43
2023-03-31T08:31:51.637Z,996.46
2023-03-31T08:32:51.555Z,996.43
2023-03-31T08:33:51.515Z,996.35
2023-03-31T08:34:51.533Z,996.33
2023-03-31T08:35:51.532Z,996.47
2023-03-31T08:36:51.482Z,996.42
2023-03-31T08:37:51.458Z,996.34
2023-03-31T08:38:51.440Z,996.32
2023-03-31T08:39:51.456Z,996.34
2023-03-31T08:40:51.411Z,996.31
2023-03-31T08:41:51.407Z,996.30
2023-03-31T08:42:51.406Z,996.22
2023-03-31T08:43:51.383Z,996.23
2023-03-31T08:44:51.403Z,996.21
2023-03-31T08:45:52.234Z,996.19
2023-03-31T08:46:51.345Z,996.14
2023-03-31T08:47:51.447Z,996.10
2023-03-31T08:48:51.326Z,996.13
2023-03-31T08:49:51.343Z,996.11
2023-03-31T08:50:51.336Z,996.09
2023-03-31T08:51:51.325Z,996.14
2023-03-31T08:52:51.289Z,996.15
2023-03-31T08:53:51.277Z,996.05
2023-03-31T08:54:51.268Z,996.00
2023-03-31T08:55:51.272Z,996.00
2023-03-31T08:56:51.287Z,996.01
2023-03-31T08:57:51.253Z,995.94
2023-03-31T08:58:51.221Z,995.97
2023-03-31T08:59:51.239Z,996.00
2023-03-31T09:00:51.240Z,995.90
2023-03-31T09:01:56.218Z,995.96
2023-03-31T09:02:52.263Z,995.94
2023-03-31T09:03:51.233Z,995.92
2023-03-31T09:04:51.162Z,995.94
2023-03-31T09:06:00.042Z,995.92
2023-03-31T09:06:52.158Z,995.89
2023-03-31T09:07:51.140Z,995.81
2023-03-31T09:08:51.110Z,995.88
2023-03-31T09:09:51.099Z,995.85
2023-03-31T09:10:51.119Z,995.80
2023-03-31T09:11:51.096Z,995.85
2023-03-31T09:12:51.081Z,995.82
2023-03-31T09:13:51.055Z,995.75
2023-03-31T09:14:51.067Z,995.79
2023-03-31T09:15:51.034Z,995.75
2023-03-31T09:16:51.078Z,995.77
2023-03-31T09:17:51.042Z,995.73
2023-03-31T09:18:51.007Z,995.76
2023-03-31T09:19:51.012Z,995.79
2023-03-31T09:20:50.990Z,995.81
2023-03-31T09:21:50.971Z,995.79
2023-03-31T09:22:51.004Z,995.71
2023-03-31T09:23:50.945Z,995.71
2023-03-31T09:24:50.972Z,995.72
2023-03-31T09:25:50.927Z,995.64
2023-03-31T09:26:50.917Z,995.66
2023-03-31T09:27:50.940Z,995.63
2023-03-31T09:28:50.897Z,995.61
2023-03-31T09:29:50.879Z,995.56
2023-03-31T09:30:50.874Z,995.57
2023-03-31T09:31:51.004Z,995.58
2023-03-31T09:32:50.912Z,995.62
2023-03-31T09:33:50.837Z,995.58
2023-03-31T09:34:50.827Z,995.59
2023-03-31T09:35:52.224Z,995.55
2023-03-31T09:36:50.837Z,995.51
2023-03-31T09:37:50.848Z,995.40
2023-03-31T09:38:50.818Z,995.47
2023-03-31T09:39:50.796Z,995.37
2023-03-31T09:40:50.774Z,995.35
2023-03-31T09:41:50.753Z,995.34
2023-03-31T09:42:50.759Z,995.31
2023-03-31T09:43:50.728Z,995.33
2023-03-31T09:44:50.752Z,995.27
2023-03-31T09:46:07.887Z,995.25
2023-03-31T09:46:51.811Z,995.24
2023-03-31T09:47:50.759Z,995.18
2023-03-31T09:48:50.702Z,995.23
2023-03-31T09:49:53.659Z,995.20
2023-03-31T09:50:50.663Z,995.16
2023-03-31T09:51:50.667Z,995.17
2023-03-31T09:52:50.668Z,995.14
2023-03-31T09:53:50.638Z,995.09
2023-03-31T09:54:50.640Z,995.12
2023-03-31T09:55:50.602Z,995.09
2023-03-31T09:56:50.663Z,995.08
2023-03-31T09:57:50.598Z,995.09
2023-03-31T09:58:50.585Z,995.03
2023-03-31T09:59:50.558Z,995.06
2023-03-31T10:00:50.550Z,995.01
2023-03-31T10:01:50.568Z,995.03
2023-03-31T10:02:50.572Z,995.00
2023-03-31T10:03:50.577Z,994.97
2023-03-31T10:04:50.523Z,995.01
2023-03-31T10:05:50.526Z,995.00
2023-03-31T10:06:50.481Z,994.96
2023-03-31T10:07:50.474Z,994.97
2023-03-31T10:08:50.483Z,994.97
2023-03-31T10:09:50.441Z,994.97
2023-03-31T10:10:50.493Z,994.97
2023-03-31T10:11:50.423Z,995.01
2023-03-31T10:12:50.415Z,994.97
2023-03-31T10:13:50.400Z,994.95
2023-03-31T10:14:50.401Z,994.92
2023-03-31T10:15:50.454Z,994.81
2023-03-31T10:16:50.374Z,994.86
2023-03-31T10:18:50.357Z,994.92
2023-03-31T10:19:50.335Z,994.86
2023-03-31T10:20:50.366Z,994.86
2023-03-31T10:21:50.309Z,994.86
2023-03-31T10:22:50.303Z,994.84
2023-03-31T10:23:50.296Z,994.77
2023-03-31T10:24:50.309Z,994.78
2023-03-31T10:25:50.274Z,994.74
2023-03-31T10:26:50.289Z,994.74
2023-03-31T10:27:50.257Z,994.69
2023-03-31T10:28:50.246Z,994.65
2023-03-31T10:29:50.254Z,994.62
2023-03-31T10:30:50.213Z,994.60
2023-03-31T10:31:50.262Z,994.61
2023-03-31T10:32:53.301Z,994.69
2023-03-31T10:33:50.277Z,994.65
2023-03-31T10:34:50.168Z,994.63
2023-03-31T10:35:50.187Z,994.68
2023-03-31T10:36:50.154Z,994.69
2023-03-31T10:37:50.157Z,994.69
2023-03-31T10:38:50.158Z,994.63
2023-03-31T10:39:50.118Z,994.59
2023-03-31T10:40:50.171Z,994.68
2023-03-31T10:41:50.090Z,994.62
2023-03-31T10:42:50.117Z,994.64
2023-03-31T10:43:50.094Z,994.65
2023-03-31T10:44:50.060Z,994.54
2023-03-31T10:45:50.054Z,994.59
2023-03-31T10:46:50.112Z,994.54
2023-03-31T10:47:50.050Z,994.51
2023-03-31T10:48:50.043Z,994.50
2023-03-31T10:49:50.001Z,994.53
2023-03-31T10:50:49.989Z,994.41
2023-03-31T10:51:49.973Z,994.48
2023-03-31T10:52:49.974Z,994.51
2023-03-31T10:53:49.989Z,994.52
2023-03-31T10:54:49.988Z,994.47
2023-03-31T10:55:49.939Z,994.53
2023-03-31T10:56:51.417Z,994.43
2023-03-31T10:57:49.915Z,994.48
2023-03-31T10:59:02.323Z,994.36
2023-03-31T10:59:50.929Z,994.40
2023-03-31T11:00:49.882Z,994.35
2023-03-31T11:01:49.880Z,994.32
2023-03-31T11:02:49.942Z,994.32
2023-03-31T11:03:50.002Z,994.32
2023-03-31T11:04:49.902Z,994.25
2023-03-31T11:05:49.828Z,994.28
2023-03-31T11:06:49.820Z,994.27
2023-03-31T11:07:49.807Z,994.22
2023-03-31T11:08:49.807Z,994.20
2023-03-31T11:09:49.832Z,994.18
2023-03-31T11:10:49.796Z,994.16
2023-03-31T11:11:49.776Z,994.24
2023-03-31T11:12:49.750Z,994.21
2023-03-31T11:13:49.735Z,994.22
2023-03-31T11:14:49.757Z,994.19
2023-03-31T11:15:49.844Z,994.22
2023-03-31T11:16:49.752Z,994.14
2023-03-31T11:17:49.775Z,994.16
2023-03-31T11:18:49.714Z,994.16
2023-03-31T11:19:49.712Z,994.16
2023-03-31T11:20:49.699Z,994.14
2023-03-31T11:21:49.648Z,994.14
2023-03-31T11:22:49.770Z,994.07
2023-03-31T11:23:49.635Z,994.14
2023-03-31T11:24:49.636Z,994.06
2023-03-31T11:25:49.640Z,994.04
2023-03-31T11:26:49.615Z,994.06
2023-03-31T11:27:49.593Z,994.00
2023-03-31T11:28:49.581Z,994.00
2023-03-31T11:29:49.563Z,993.93
2023-03-31T11:30:49.623Z,993.94
2023-03-31T11:31:49.586Z,993.92
2023-03-31T11:32:49.550Z,993.89
2023-03-31T11:33:49.518Z,993.91
2023-03-31T11:34:49.515Z,993.87
2023-03-31T11:35:49.519Z,993.86
2023-03-31T11:36:49.518Z,993.86
2023-03-31T11:37:49.476Z,993.78
2023-03-31T11:38:49.471Z,993.76
2023-03-31T11:39:49.467Z,993.81
2023-03-31T11:40:49.462Z,993.73
2023-03-31T11:41:49.446Z,993.73
2023-03-31T11:42:49.423Z,993.66
2023-03-31T11:43:49.404Z,993.61
2023-03-31T11:44:49.430Z,993.60
2023-03-31T11:45:49.410Z,993.57
2023-03-31T11:46:49.407Z,993.49
2023-03-31T11:47:49.395Z,993.55
2023-03-31T11:48:49.349Z,993.53
2023-03-31T11:49:49.371Z,993.46
2023-03-31T11:50:49.343Z,993.48
2023-03-31T11:51:49.327Z,993.44
2023-03-31T11:52:49.330Z,993.39
2023-03-31T11:53:49.304Z,993.42
2023-03-31T11:54:49.287Z,993.44
2023-03-31T11:55:49.287Z,993.36
2023-03-31T11:56:49.363Z,993.38
2023-03-31T11:57:49.251Z,993.40
2023-03-31T11:58:49.252Z,993.39
2023-03-31T11:59:49.233Z,993.43
2023-03-31T12:00:49.225Z,993.33
2023-03-31T12:01:49.226Z,993.33
2023-03-31T12:02:49.246Z,993.37
2023-03-31T12:03:49.288Z,993.29
2023-03-31T12:04:49.198Z,993.38
2023-03-31T12:05:49.242Z,993.30
2023-03-31T12:06:49.161Z,993.24
2023-03-31T12:07:49.183Z,993.30
2023-03-31T12:08:49.135Z,993.27
2023-03-31T12:09:49.129Z,993.21
2023-03-31T12:10:49.114Z,993.19
2023-03-31T12:11:49.101Z,993.25
2023-03-31T12:12:49.116Z,993.18
2023-03-31T12:13:49.078Z,993.17
2023-03-31T12:14:49.074Z,993.18
2023-03-31T12:15:49.064Z,993.14
2023-03-31T12:16:49.057Z,993.14
2023-03-31T12:17:49.104Z,993.12
2023-03-31T12:18:49.049Z,993.09
2023-03-31T12:19:49.024Z,993.08
2023-03-31T12:20:49.005Z,993.10
2023-03-31T12:21:48.991Z,993.08
2023-03-31T12:22:49.009Z,993.07
2023-03-31T12:23:48.978Z,993.05
2023-03-31T12:24:48.961Z,993.10
2023-03-31T12:25:48.943Z,993.11